Shelbyville, Tennessee
Current Conditions -  °F | °C
As of 12:35 PM on Sunday 21 Dec 2014 (Local Time) from KSYI Reporting Station
Few Clouds Few Clouds  
Wind Chill: 54°   Ceiling: Unl
Heat Index: 54°   Visibility: 10mi
Dew Point: 39°   Wind: 3mph
Humidity: 58%   Direction: 230°SW
Pressure: 30.13"   Gusts: NA
Location:  35.48°N, 86.46°W
Report Text: KSYI 211835Z AUTO 23003KT 10SM FEW035 12/04 A3013 RMK
Loading
Personal Weather Stations






























Interactive Weather Map New forecast layout! Learn more

10-Day Weather Forecast

Advertisements
Track Severe Weather on mobile